Time;durP1;ratioP1;P1;durP2;ratioP2;P2;SDS_P1;SDS_P2;PMS_P1;PMS_P2;Temp;Humidity;BMP_temperature;BMP_pressure;BME280_temperature;BME280_humidity;BME280_pressure;Samples;Min_cycle;Max_cycle;Signal;HPM_P1;HPM_P2
2022/03/19 00:01:43;;;;;;;13.63;3.30;;;4.70;99.90;;;;;;5112425;28;20112;-65
2022/03/19 00:04:09;;;;;;;10.88;3.03;;;4.70;99.90;;;;;;5111744;28;20051;-65
2022/03/19 00:06:38;;;;;;;10.88;2.95;;;4.70;99.90;;;;;;5112248;28;20374;-66
2022/03/19 00:09:06;;;;;;;18.23;3.55;;;4.70;99.90;;;;;;5112192;28;20044;-65
2022/03/19 00:11:31;;;;;;;11.45;3.00;;;4.70;99.90;;;;;;5112293;28;20122;-66
2022/03/19 00:13:57;;;;;;;11.02;3.03;;;4.70;99.90;;;;;;5112092;28;20079;-65
2022/03/19 00:16:24;;;;;;;12.77;3.10;;;4.60;99.90;;;;;;5111284;28;20082;-65
2022/03/19 00:18:50;;;;;;;11.40;3.42;;;4.70;99.90;;;;;;5094080;28;20093;-65
2022/03/19 00:21:16;;;;;;;14.90;3.65;;;4.60;99.90;;;;;;5076769;28;20051;-64
2022/03/19 00:23:42;;;;;;;16.83;3.75;;;4.70;99.90;;;;;;5112012;28;20122;-66
2022/03/19 00:26:08;;;;;;;11.77;3.42;;;4.70;99.90;;;;;;5111509;28;20524;-65
2022/03/19 00:28:36;;;;;;;10.88;3.20;;;4.60;99.90;;;;;;5111927;28;20036;-64
2022/03/19 00:31:02;;;;;;;17.20;3.53;;;4.70;99.90;;;;;;5093946;28;20452;-65
2022/03/19 00:33:28;;;;;;;18.30;4.03;;;4.60;99.90;;;;;;5111829;28;20050;-64
2022/03/19 00:35:54;;;;;;;11.80;3.45;;;4.60;99.90;;;;;;5111463;28;20039;-65
2022/03/19 00:38:20;;;;;;;11.68;3.22;;;4.60;99.90;;;;;;5111329;28;20370;-64
2022/03/19 00:40:46;;;;;;;8.00;2.30;;;4.70;99.90;;;;;;5111517;28;20050;-65
2022/03/19 00:43:11;;;;;;;13.73;2.78;;;5.00;99.90;;;;;;5111505;28;20048;-67
2022/03/19 00:45:37;;;;;;;11.70;2.90;;;4.60;99.90;;;;;;5093333;28;20039;-64
2022/03/19 00:48:03;;;;;;;11.65;2.80;;;4.50;99.90;;;;;;5093724;28;20095;-65
2022/03/19 00:50:29;;;;;;;10.75;2.85;;;4.50;99.90;;;;;;5093182;28;20673;-65
2022/03/19 00:52:55;;;;;;;11.32;3.58;;;4.50;99.90;;;;;;5111545;28;20043;-64
2022/03/19 00:55:20;;;;;;;13.65;3.00;;;4.60;99.90;;;;;;5111271;28;20044;-64
2022/03/19 00:57:47;;;;;;;12.30;2.85;;;4.40;99.90;;;;;;5111207;28;20059;-65
2022/03/19 01:00:15;;;;;;;9.18;2.80;;;4.40;99.90;;;;;;5111165;28;20174;-64
2022/03/19 01:02:43;;;;;;;13.55;3.75;;;4.40;99.90;;;;;;5111608;28;20082;-65
2022/03/19 01:05:10;;;;;;;15.52;3.38;;;4.40;99.90;;;;;;5111768;28;20055;-65
2022/03/19 01:07:47;;;;;;;16.05;3.70;;;4.40;99.90;;;;;;5111535;28;20079;-64
2022/03/19 01:10:16;;;;;;;13.90;3.00;;;4.30;99.90;;;;;;5093218;28;20480;-65
2022/03/19 01:12:42;;;;;;;11.85;2.67;;;4.30;99.90;;;;;;5111406;28;20151;-64
2022/03/19 01:15:09;;;;;;;14.05;3.17;;;4.30;99.90;;;;;;5115387;28;20052;-64
2022/03/19 01:17:39;;;;;;;17.05;3.72;;;4.30;99.90;;;;;;5096945;28;20054;-65
2022/03/19 01:20:06;;;;;;;10.88;3.45;;;4.20;99.90;;;;;;5115676;28;20550;-64
2022/03/19 01:22:33;;;;;;;14.85;3.33;;;4.20;99.90;;;;;;5114734;28;20427;-64
2022/03/19 01:25:04;;;;;;;14.52;3.33;;;4.30;99.90;;;;;;5115416;28;20439;-65
2022/03/19 01:27:32;;;;;;;9.63;2.90;;;4.30;99.90;;;;;;5114988;28;20047;-65
2022/03/19 01:29:58;;;;;;;10.20;2.78;;;4.30;99.90;;;;;;5115047;28;20104;-64
2022/03/19 01:32:23;;;;;;;11.75;3.42;;;4.20;99.90;;;;;;5114852;28;20084;-65
2022/03/19 01:34:49;;;;;;;15.02;2.70;;;4.20;99.90;;;;;;5115080;28;20052;-66
2022/03/19 01:37:15;;;;;;;11.93;3.00;;;4.20;99.90;;;;;;5114541;28;20035;-70
2022/03/19 01:39:41;;;;;;;14.52;3.60;;;4.30;99.90;;;;;;5096889;28;20051;-65
2022/03/19 01:42:07;;;;;;;12.95;3.40;;;4.30;99.90;;;;;;5114946;28;20093;-65
2022/03/19 01:44:33;;;;;;;15.70;3.92;;;4.20;99.90;;;;;;5114543;28;20043;-66
2022/03/19 01:47:06;;;;;;;16.42;3.17;;;4.20;99.90;;;;;;5114614;28;20050;-65
2022/03/19 01:49:32;;;;;;;10.35;2.80;;;4.20;99.90;;;;;;5114376;28;20039;-65
2022/03/19 01:52:01;;;;;;;19.80;3.95;;;4.10;99.90;;;;;;5079844;28;20461;-64
2022/03/19 01:54:32;;;;;;;13.05;3.30;;;4.10;99.90;;;;;;5114459;28;20130;-64
2022/03/19 01:56:59;;;;;;;15.82;3.90;;;4.10;99.90;;;;;;5114328;28;20101;-64
2022/03/19 01:59:28;;;;;;;13.73;3.50;;;4.10;99.90;;;;;;5096210;28;20048;-66
2022/03/19 02:01:54;;;;;;;13.85;3.47;;;4.10;99.90;;;;;;5114597;28;20485;-66
2022/03/19 02:04:21;;;;;;;17.38;3.65;;;4.10;99.90;;;;;;5095857;28;20047;-65
2022/03/19 02:06:47;;;;;;;16.23;3.15;;;4.00;99.90;;;;;;5114385;28;20116;-65
2022/03/19 02:09:14;;;;;;;11.70;3.47;;;4.10;99.90;;;;;;5114570;28;20066;-64
2022/03/19 02:11:40;;;;;;;13.75;3.40;;;4.00;99.90;;;;;;5113497;28;20047;-65
2022/03/19 02:14:06;;;;;;;12.45;3.00;;;4.00;99.90;;;;;;5096410;28;20048;-64
2022/03/19 02:16:33;;;;;;;12.30;3.83;;;4.10;99.90;;;;;;5095554;28;20065;-63
2022/03/19 02:19:00;;;;;;;20.15;4.40;;;4.00;99.90;;;;;;5096058;28;20139;-64
2022/03/19 02:21:26;;;;;;;14.75;4.07;;;4.00;99.90;;;;;;5113821;28;20047;-65
2022/03/19 02:26:46;;;;;;;14.82;3.35;;;4.00;99.90;;;;;;5113486;28;20670;-65
2022/03/19 02:29:12;;;;;;;15.02;3.88;;;4.00;99.90;;;;;;5114107;28;20047;-65
2022/03/19 02:31:42;;;;;;;14.85;4.00;;;3.90;99.90;;;;;;5113625;28;20472;-63
2022/03/19 02:34:08;;;;;;;11.75;3.33;;;4.00;99.90;;;;;;5114054;28;20077;-65
2022/03/19 02:36:40;;;;;;;15.68;3.67;;;4.10;99.90;;;;;;5113480;28;20043;-64
2022/03/19 02:39:25;;;;;;;11.10;3.00;;;3.90;99.90;;;;;;5113804;28;20097;-64
2022/03/19 02:41:51;;;;;;;16.63;3.15;;;3.90;99.90;;;;;;5113921;28;20058;-64
2022/03/19 02:44:19;;;;;;;16.55;4.05;;;3.90;99.90;;;;;;5095629;28;20047;-64
2022/03/19 02:46:56;;;;;;;16.50;3.40;;;4.10;99.90;;;;;;5113293;28;20044;-64
2022/03/19 02:49:22;;;;;;;14.98;3.78;;;3.80;99.90;;;;;;5095763;28;20055;-65
2022/03/19 02:51:50;;;;;;;15.15;4.18;;;3.80;99.90;;;;;;5113120;28;20442;-64
2022/03/19 02:54:19;;;;;;;12.77;3.45;;;3.70;99.90;;;;;;5095607;28;20044;-67
2022/03/19 02:56:46;;;;;;;16.73;3.92;;;3.80;99.90;;;;;;5112974;28;20040;-65
2022/03/19 02:59:18;;;;;;;10.65;3.85;;;3.70;99.90;;;;;;5113295;28;20449;-64
2022/03/19 03:01:48;;;;;;;18.05;4.07;;;3.70;99.90;;;;;;5113328;28;20050;-66
2022/03/19 03:04:15;;;;;;;10.50;3.42;;;3.70;99.90;;;;;;5113441;28;20066;-65
2022/03/19 03:06:42;;;;;;;17.02;4.32;;;3.70;99.90;;;;;;5113160;28;20091;-66
2022/03/19 03:09:09;;;;;;;14.88;4.47;;;3.60;99.90;;;;;;5094809;28;20476;-64
2022/03/19 03:11:36;;;;;;;13.90;3.83;;;3.60;99.90;;;;;;5112528;28;20051;-65
2022/03/19 03:14:03;;;;;;;18.92;4.07;;;3.60;99.90;;;;;;5094948;28;20044;-65
2022/03/19 03:16:32;;;;;;;14.88;4.45;;;3.60;99.90;;;;;;5077594;28;20047;-66
2022/03/19 03:19:03;;;;;;;18.55;3.95;;;3.60;99.90;;;;;;5113055;28;20039;-65
2022/03/19 03:21:29;;;;;;;13.52;3.75;;;3.60;99.90;;;;;;5112868;28;20127;-65
2022/03/19 03:23:56;;;;;;;15.65;4.00;;;3.60;99.90;;;;;;5113045;28;20445;-65
2022/03/19 03:26:23;;;;;;;16.58;4.20;;;3.60;99.90;;;;;;5112902;28;20086;-66
2022/03/19 03:28:49;;;;;;;14.73;4.70;;;3.60;99.90;;;;;;5094538;28;20461;-65
2022/03/19 03:31:14;;;;;;;12.23;3.97;;;3.60;99.90;;;;;;5113037;28;20079;-66
2022/03/19 03:33:40;;;;;;;16.60;4.35;;;3.70;99.90;;;;;;5112698;28;20035;-65
2022/03/19 03:36:06;;;;;;;11.05;3.90;;;3.70;99.90;;;;;;5112231;28;20055;-65
2022/03/19 03:38:31;;;;;;;12.75;3.63;;;3.60;99.90;;;;;;5112391;28;20115;-66
2022/03/19 03:40:57;;;;;;;17.05;4.07;;;4.00;99.90;;;;;;5113153;28;20461;-65
2022/03/19 03:43:23;;;;;;;16.52;5.15;;;3.60;99.90;;;;;;5094790;28;20044;-65
2022/03/19 03:45:50;;;;;;;14.02;3.83;;;3.60;99.90;;;;;;5112448;28;20043;-66
2022/03/19 03:48:16;;;;;;;16.60;4.15;;;3.60;99.90;;;;;;5094603;28;20134;-65
2022/03/19 03:50:42;;;;;;;14.95;4.90;;;3.70;99.90;;;;;;5112321;28;20039;-65
2022/03/19 03:53:08;;;;;;;12.75;4.47;;;3.70;99.90;;;;;;5112697;28;20054;-65
2022/03/19 03:55:36;;;;;;;15.80;4.70;;;3.70;99.90;;;;;;5094179;28;20374;-65
2022/03/19 03:58:04;;;;;;;15.65;4.43;;;3.60;99.90;;;;;;5111860;28;20055;-65
2022/03/19 04:00:31;;;;;;;15.13;4.82;;;3.60;99.90;;;;;;5112317;28;20054;-64
2022/03/19 04:02:56;;;;;;;14.35;4.22;;;3.60;99.90;;;;;;5094154;28;20052;-66
2022/03/19 04:05:23;;;;;;;15.18;4.35;;;3.60;99.90;;;;;;5112434;28;20503;-65
2022/03/19 04:07:48;;;;;;;12.32;3.88;;;3.50;99.90;;;;;;5111882;28;20047;-65
2022/03/19 04:10:18;;;;;;;12.90;5.10;;;3.50;99.90;;;;;;5112163;28;20100;-64
2022/03/19 04:12:44;;;;;;;12.88;4.47;;;3.50;99.90;;;;;;5093663;28;20370;-65
2022/03/19 04:15:11;;;;;;;13.07;4.38;;;3.50;99.90;;;;;;5112182;28;20051;-65
2022/03/19 04:17:37;;;;;;;13.10;3.50;;;3.50;99.90;;;;;;5111672;28;20048;-65
2022/03/19 04:20:07;;;;;;;8.55;3.80;;;3.40;99.90;;;;;;5111861;28;20044;-66
2022/03/19 04:22:34;;;;;;;11.65;4.55;;;3.40;99.90;;;;;;5112489;28;20423;-66
2022/03/19 04:25:00;;;;;;;14.02;4.38;;;3.30;99.90;;;;;;5112318;28;20135;-65
2022/03/19 04:27:26;;;;;;;14.15;4.18;;;3.30;99.90;;;;;;5112190;28;20071;-65
2022/03/19 04:29:51;;;;;;;14.65;5.03;;;3.20;99.90;;;;;;5093785;28;20043;-67
2022/03/19 04:32:17;;;;;;;12.40;4.38;;;3.20;99.90;;;;;;5112037;28;20377;-66
2022/03/19 04:34:43;;;;;;;14.25;4.15;;;3.20;99.90;;;;;;5111305;28;20044;-65
2022/03/19 04:37:09;;;;;;;13.13;4.70;;;3.20;99.90;;;;;;5111763;28;20047;-66
2022/03/19 04:39:34;;;;;;;18.13;4.07;;;3.10;99.90;;;;;;5112216;28;20456;-63
2022/03/19 04:42:00;;;;;;;17.67;4.78;;;3.20;99.90;;;;;;5093265;28;20054;-66
2022/03/19 04:44:26;;;;;;;16.38;5.20;;;3.40;99.90;;;;;;5111930;28;20062;-63
2022/03/19 04:46:52;;;;;;;19.33;5.88;;;3.10;99.90;;;;;;5111467;28;20114;-64
2022/03/19 04:49:17;;;;;;;13.15;4.40;;;3.10;99.90;;;;;;5096299;28;20043;-64
2022/03/19 04:51:43;;;;;;;16.83;5.13;;;3.10;99.90;;;;;;5115816;28;20130;-65
2022/03/19 04:54:10;;;;;;;12.57;5.22;;;3.10;99.90;;;;;;5115891;28;20051;-66
2022/03/19 04:56:36;;;;;;;17.38;4.88;;;3.10;99.90;;;;;;5097463;28;20048;-64
2022/03/19 04:59:03;;;;;;;15.00;5.03;;;3.00;99.90;;;;;;5080592;28;20211;-64
2022/03/19 05:01:31;;;;;;;16.40;5.00;;;3.00;99.90;;;;;;5097719;28;20076;-64
2022/03/19 05:03:57;;;;;;;14.27;5.13;;;3.00;99.90;;;;;;5097065;28;20059;-64
2022/03/19 05:06:24;;;;;;;11.60;4.95;;;3.00;99.90;;;;;;5115663;28;20047;-63
2022/03/19 05:11:12;;;;;;;20.60;6.45;;;3.00;99.90;;;;;;5115288;28;20047;-65
2022/03/19 05:11:39;;;;;;;14.93;5.82;;;3.00;99.90;;;;;;5115436;28;20055;-64
2022/03/19 05:14:05;;;;;;;17.20;6.50;;;3.00;99.90;;;;;;5115160;28;20085;-65
2022/03/19 05:16:31;;;;;;;19.77;6.82;;;3.00;99.90;;;;;;5115523;28;20075;-64
2022/03/19 05:18:56;;;;;;;15.35;7.13;;;3.30;99.90;;;;;;5115185;28;20040;-64
2022/03/19 05:21:22;;;;;;;16.10;6.78;;;3.10;99.90;;;;;;5115359;28;20062;-65
2022/03/19 05:23:48;;;;;;;20.02;7.13;;;3.10;99.90;;;;;;5096745;28;20044;-64
2022/03/19 05:26:13;;;;;;;20.25;7.28;;;3.10;99.90;;;;;;5115358;28;20050;-64
2022/03/19 05:28:39;;;;;;;19.23;7.90;;;3.10;99.90;;;;;;5097077;28;20085;-65
2022/03/19 05:31:09;;;;;;;19.88;7.63;;;3.10;99.90;;;;;;5114721;28;20087;-64
2022/03/19 05:36:19;;;;;;;14.40;8.00;;;3.20;99.90;;;;;;5114932;28;20051;-65
2022/03/19 05:38:45;;;;;;;16.17;8.30;;;3.30;99.90;;;;;;5114330;28;20130;-68
2022/03/19 05:41:11;;;;;;;26.05;9.15;;;3.30;99.90;;;;;;5079725;28;20055;-64
2022/03/19 05:43:37;;;;;;;23.73;9.43;;;3.30;99.90;;;;;;5114756;28;20514;-64
2022/03/19 05:46:03;;;;;;;18.40;8.55;;;3.50;99.90;;;;;;5114352;28;20079;-64
2022/03/19 05:48:29;;;;;;;18.75;8.13;;;3.30;99.90;;;;;;5114660;28;20048;-67
2022/03/19 05:50:55;;;;;;;21.75;8.85;;;3.30;99.90;;;;;;5114456;28;20066;-66
2022/03/19 05:53:20;;;;;;;26.08;9.50;;;3.30;99.90;;;;;;5096621;28;20058;-65
2022/03/19 05:55:47;;;;;;;21.33;9.45;;;3.40;99.90;;;;;;5096369;28;20051;-72
2022/03/19 05:58:12;;;;;;;23.35;9.13;;;3.40;99.90;;;;;;5096063;28;20416;-65
2022/03/19 06:00:38;;;;;;;20.90;9.30;;;3.50;99.90;;;;;;5114018;28;20052;-64
2022/03/19 06:03:04;;;;;;;18.05;8.95;;;3.50;99.90;;;;;;5095860;28;20039;-64
2022/03/19 06:05:30;;;;;;;21.60;8.82;;;3.50;99.90;;;;;;5079473;28;20052;-64
2022/03/19 06:07:55;;;;;;;21.17;10.00;;;3.50;99.90;;;;;;5113858;28;20043;-65
2022/03/19 06:10:21;;;;;;;19.52;8.00;;;3.60;99.90;;;;;;5096410;28;20477;-64
2022/03/19 06:12:47;;;;;;;22.60;9.35;;;3.70;99.90;;;;;;5114238;28;20039;-66
2022/03/19 06:15:13;;;;;;;20.30;9.32;;;3.60;99.90;;;;;;5095936;28;20047;-66
2022/03/19 06:17:39;;;;;;;17.60;8.07;;;3.70;99.90;;;;;;5114136;28;20051;-66
2022/03/19 06:20:05;;;;;;;21.02;8.55;;;3.70;99.90;;;;;;5095917;28;20043;-64
2022/03/19 06:22:30;;;;;;;23.02;9.15;;;3.70;99.90;;;;;;5095919;28;20055;-66
2022/03/19 06:24:56;;;;;;;17.73;7.38;;;3.70;99.90;;;;;;5113758;28;20044;-64
2022/03/19 06:27:22;;;;;;;24.52;8.65;;;3.90;99.90;;;;;;5114106;28;20370;-65
2022/03/19 06:29:48;;;;;;;18.95;7.00;;;3.80;99.90;;;;;;5114117;28;20078;-65
2022/03/19 06:32:20;;;;;;;17.55;7.93;;;3.80;99.90;;;;;;5113769;28;20054;-65
2022/03/19 06:34:50;;;;;;;17.50;8.15;;;3.80;99.90;;;;;;5096892;28;20093;-66
2022/03/19 06:37:22;;;;;;;16.10;7.57;;;3.90;99.90;;;;;;5113569;28;20503;-64
2022/03/19 06:39:49;;;;;;;17.20;6.82;;;3.90;99.90;;;;;;5095889;28;20031;-66
2022/03/19 06:42:15;;;;;;;16.60;6.90;;;3.90;99.90;;;;;;5095303;28;20182;-63
2022/03/19 06:44:41;;;;;;;17.05;6.72;;;4.00;99.90;;;;;;5095735;28;20138;-66
2022/03/19 06:47:07;;;;;;;18.00;6.90;;;4.10;99.90;;;;;;5113426;28;20376;-63
2022/03/19 06:49:33;;;;;;;16.27;7.03;;;4.10;99.90;;;;;;5095619;28;20043;-65
2022/03/19 06:51:59;;;;;;;15.20;6.13;;;4.10;99.90;;;;;;5095523;28;20052;-65
2022/03/19 06:54:24;;;;;;;14.38;6.20;;;4.20;99.90;;;;;;5078653;28;20044;-67
2022/03/19 06:56:52;;;;;;;16.95;6.47;;;4.30;99.90;;;;;;5113394;28;20044;-65
2022/03/19 06:59:18;;;;;;;17.90;6.45;;;4.30;99.90;;;;;;5113237;28;20262;-67
2022/03/19 07:01:43;;;;;;;17.42;7.75;;;4.50;99.90;;;;;;5113587;28;20427;-65
2022/03/19 07:04:09;;;;;;;15.27;6.15;;;4.70;99.90;;;;;;5112798;28;20054;-66
2022/03/19 07:06:38;;;;;;;16.67;6.70;;;4.70;99.90;;;;;;5095391;28;20523;-64
2022/03/19 07:09:05;;;;;;;13.07;5.68;;;4.80;99.90;;;;;;5112959;28;20401;-65
2022/03/19 07:11:31;;;;;;;10.32;5.63;;;5.10;99.90;;;;;;5112457;28;20044;-66
2022/03/19 07:13:58;;;;;;;13.88;5.72;;;5.70;99.90;;;;;;5113114;28;20047;-68
2022/03/19 07:16:23;;;;;;;12.45;6.25;;;6.70;99.90;;;;;;5095014;28;20051;-65
2022/03/19 07:18:49;;;;;;;14.90;5.38;;;7.50;99.90;;;;;;5112995;28;20044;-66
2022/03/19 07:21:16;;;;;;;14.40;6.32;;;8.00;99.90;;;;;;5112330;28;20077;-65
2022/03/19 07:23:42;;;;;;;15.57;5.50;;;8.50;99.90;;;;;;5095097;28;20502;-64
2022/03/19 07:26:09;;;;;;;18.45;5.82;;;8.80;99.90;;;;;;5112598;28;20054;-63
2022/03/19 07:28:35;;;;;;;13.90;5.78;;;9.20;99.90;;;;;;5112928;28;20069;-64
2022/03/19 07:31:00;;;;;;;13.95;5.90;;;9.60;99.90;;;;;;5112275;28;20044;-62
2022/03/19 07:33:28;;;;;;;16.27;6.45;;;10.30;99.90;;;;;;5112835;28;20116;-63
2022/03/19 07:35:53;;;;;;;15.52;5.82;;;10.80;99.90;;;;;;5094917;28;20083;-65
2022/03/19 07:38:19;;;;;;;14.18;5.60;;;11.50;99.90;;;;;;5112288;28;20493;-63
2022/03/19 07:43:30;;;;;;;12.60;5.30;;;12.70;99.90;;;;;;5112125;28;20056;-65
2022/03/19 07:45:56;;;;;;;17.05;5.45;;;13.20;99.90;;;;;;5111926;28;20492;-64
2022/03/19 07:48:22;;;;;;;8.98;4.38;;;13.40;99.90;;;;;;5112183;28;20039;-64
2022/03/19 07:50:48;;;;;;;10.70;4.53;;;13.80;99.90;;;;;;5112455;28;20050;-67
2022/03/19 07:53:14;;;;;;;13.88;4.80;;;14.10;99.90;;;;;;5111833;28;20127;-65
2022/03/19 07:55:40;;;;;;;11.57;4.60;;;14.50;99.90;;;;;;5111873;28;20177;-63
2022/03/19 07:58:06;;;;;;;12.27;4.85;;;14.70;99.90;;;;;;5093507;28;20142;-65
2022/03/19 08:00:33;;;;;;;12.45;4.53;;;15.00;99.90;;;;;;5111816;28;20054;-64
2022/03/19 08:02:58;;;;;;;10.07;4.25;;;15.40;98.80;;;;;;5112297;28;20047;-64
2022/03/19 08:05:24;;;;;;;13.77;4.45;;;15.70;99.90;;;;;;5093098;28;20051;-65
2022/03/19 08:07:51;;;;;;;9.93;4.18;;;15.90;97.80;;;;;;5112240;28;20047;-68
2022/03/19 08:10:18;;;;;;;17.00;5.55;;;16.40;96.50;;;;;;5094310;28;20116;-64
2022/03/19 08:12:45;;;;;;;11.32;4.57;;;16.60;97.10;;;;;;5111737;28;20035;-66
2022/03/19 08:15:11;;;;;;;12.93;4.28;;;16.90;97.80;;;;;;5111204;28;20122;-64
2022/03/19 08:17:38;;;;;;;11.18;4.53;;;17.30;95.90;;;;;;5112106;28;20131;-68
2022/03/19 08:20:08;;;;;;;10.55;4.63;;;17.00;92.00;;;;;;5111907;28;20103;-68
2022/03/19 08:22:35;;;;;;;12.48;4.47;;;17.30;92.50;;;;;;5112183;28;20139;-66
2022/03/19 08:25:01;;;;;;;9.38;4.18;;;17.20;92.20;;;;;;5111935;28;20117;-65
2022/03/19 08:27:27;;;;;;;12.10;4.80;;;17.20;92.30;;;;;;5111709;28;20100;-66
2022/03/19 08:29:53;;;;;;;13.65;5.47;;;17.00;92.70;;;;;;5093695;28;20083;-64
2022/03/19 08:32:22;;;;;;;15.88;4.80;;;17.20;91.30;;;;;;5111761;28;20055;-65
2022/03/19 08:34:48;;;;;;;13.25;4.22;;;17.40;91.80;;;;;;5112142;28;20079;-65
2022/03/19 08:37:14;;;;;;;10.07;4.22;;;17.30;90.80;;;;;;5111632;28;20129;-65
2022/03/19 08:42:24;;;;;;;13.98;4.32;;;17.50;90.20;;;;;;5095928;28;20451;-65
2022/03/19 08:44:50;;;;;;;14.27;4.82;;;17.50;90.00;;;;;;5111641;28;20103;-65
2022/03/19 08:47:16;;;;;;;10.15;3.75;;;17.50;88.10;;;;;;5111357;28;20459;-65
2022/03/19 08:49:41;;;;;;;8.85;3.63;;;17.20;86.00;;;;;;5076936;28;20079;-65
2022/03/19 08:52:07;;;;;;;11.32;3.80;;;17.10;86.10;;;;;;5093382;28;20040;-64
2022/03/19 08:54:33;;;;;;;11.48;4.03;;;17.30;87.40;;;;;;5111488;28;20071;-65
2022/03/19 08:56:59;;;;;;;9.43;3.20;;;17.60;87.40;;;;;;5111348;28;20384;-66
2022/03/19 08:59:25;;;;;;;11.90;3.90;;;17.70;83.00;;;;;;5111117;28;20352;-65
2022/03/19 09:01:53;;;;;;;11.45;3.92;;;17.90;83.80;;;;;;5111056;28;20047;-65
2022/03/19 09:04:19;;;;;;;13.10;3.80;;;18.00;84.60;;;;;;5093196;28;20083;-65
2022/03/19 09:06:45;;;;;;;9.40;3.47;;;17.80;82.80;;;;;;5093367;28;20044;-66
2022/03/19 09:09:14;;;;;;;10.00;3.30;;;17.60;81.80;;;;;;5111174;28;20071;-74
2022/03/19 09:11:40;;;;;;;10.07;3.45;;;17.70;84.30;;;;;;5093663;28;20446;-65
2022/03/19 09:14:07;;;;;;;12.20;3.60;;;18.00;81.80;;;;;;5111365;28;20345;-65
2022/03/19 09:16:34;;;;;;;12.05;3.80;;;18.30;81.80;;;;;;5110869;28;20477;-65
2022/03/19 09:19:01;;;;;;;10.75;3.55;;;18.40;80.10;;;;;;5111363;28;20050;-64
2022/03/19 09:21:29;;;;;;;10.95;3.28;;;18.40;81.00;;;;;;5110843;28;20126;-65
2022/03/19 09:23:56;;;;;;;10.43;3.40;;;17.50;79.40;;;;;;5093207;28;20047;-65
2022/03/19 09:26:22;;;;;;;9.93;3.35;;;16.20;79.30;;;;;;5110808;28;20453;-67
2022/03/19 09:28:48;;;;;;;11.48;3.53;;;15.30;81.40;;;;;;5093275;28;20050;-65
2022/03/19 09:31:16;;;;;;;8.32;2.63;;;14.60;82.30;;;;;;5092883;28;20055;-67
2022/03/19 09:33:45;;;;;;;11.40;3.28;;;13.90;83.00;;;;;;5110709;28;20528;-65
2022/03/19 09:36:11;;;;;;;11.13;3.53;;;13.60;84.50;;;;;;5115136;28;20361;-66
2022/03/19 09:38:37;;;;;;;11.32;3.72;;;13.30;86.30;;;;;;5114403;28;20545;-65
2022/03/19 09:41:03;;;;;;;12.45;3.58;;;13.20;86.70;;;;;;5115055;28;20048;-65
2022/03/19 09:43:29;;;;;;;12.98;3.47;;;12.90;86.80;;;;;;5114236;28;20048;-65
2022/03/19 09:45:55;;;;;;;11.77;3.15;;;12.70;88.60;;;;;;5114971;28;20098;-65
2022/03/19 09:48:21;;;;;;;10.68;3.75;;;12.60;88.90;;;;;;5114429;28;20450;-67
2022/03/19 09:50:52;;;;;;;12.88;4.03;;;12.40;90.00;;;;;;5115069;28;20039;-66
2022/03/19 09:53:23;;;;;;;12.57;3.30;;;12.30;90.70;;;;;;5079310;28;20044;-69
2022/03/19 09:55:50;;;;;;;12.70;3.25;;;12.30;90.50;;;;;;5114712;28;20047;-66
2022/03/19 09:58:16;;;;;;;11.10;3.25;;;12.20;90.70;;;;;;5095903;28;20058;-77
2022/03/19 10:00:43;;;;;;;10.60;4.05;;;12.10;91.20;;;;;;5096255;28;20159;-67
2022/03/19 10:03:11;;;;;;;14.27;4.10;;;12.10;91.30;;;;;;5114373;28;20536;-65
2022/03/19 10:08:37;;;;;;;9.63;3.63;;;11.90;91.80;;;;;;5114232;28;20054;-66
2022/03/19 10:11:04;;;;;;;9.60;3.05;;;11.80;92.20;;;;;;5114470;28;20086;-65
2022/03/19 10:13:30;;;;;;;8.93;2.97;;;11.60;92.00;;;;;;5113946;28;20479;-64
2022/03/19 10:15:56;;;;;;;11.52;3.40;;;11.60;92.40;;;;;;5096258;28;20139;-64
2022/03/19 10:18:30;;;;;;;8.73;3.65;;;11.60;92.70;;;;;;5095622;28;20527;-65
2022/03/19 10:21:00;;;;;;;12.95;3.40;;;11.80;93.30;;;;;;5114415;28;20104;-65
2022/03/19 10:23:39;;;;;;;13.13;4.05;;;11.90;93.40;;;;;;5095913;28;20039;-66
2022/03/19 10:26:06;;;;;;;7.35;3.10;;;11.90;92.70;;;;;;5096045;28;20085;-65
2022/03/19 10:28:34;;;;;;;12.88;3.45;;;11.90;92.60;;;;;;5095537;28;20040;-64
2022/03/19 10:31:00;;;;;;;14.20;4.30;;;11.80;93.00;;;;;;5095918;28;20058;-64
2022/03/19 10:33:28;;;;;;;9.43;2.95;;;11.70;93.40;;;;;;5095370;28;20392;-64
2022/03/19 10:36:08;;;;;;;9.05;2.85;;;11.80;92.10;;;;;;5113863;28;20093;-64
2022/03/19 10:38:45;;;;;;;8.10;2.60;;;11.80;91.60;;;;;;5113452;28;20040;-65
2022/03/19 10:41:17;;;;;;;9.18;3.22;;;11.80;92.50;;;;;;5114008;28;20058;-64
2022/03/19 10:43:47;;;;;;;11.63;3.45;;;11.70;92.50;;;;;;5095548;28;20043;-65
2022/03/19 10:46:15;;;;;;;10.98;3.20;;;11.80;93.00;;;;;;5094173;28;20131;-65
2022/03/19 10:48:41;;;;;;;9.93;3.22;;;11.90;93.10;;;;;;5113391;28;20320;-65
2022/03/19 10:51:08;;;;;;;8.48;2.78;;;11.80;92.30;;;;;;5113689;28;20076;-65
2022/03/19 10:53:34;;;;;;;8.13;2.47;;;11.80;92.00;;;;;;5113338;28;20083;-65
2022/03/19 10:56:01;;;;;;;8.05;2.75;;;11.80;90.90;;;;;;5113538;28;20043;-64
2022/03/19 10:58:27;;;;;;;7.47;2.53;;;11.80;90.70;;;;;;5094522;28;20055;-66
2022/03/19 11:00:53;;;;;;;6.35;2.70;;;11.80;88.00;;;;;;5113484;28;20043;-66
2022/03/19 11:03:30;;;;;;;5.45;1.90;;;11.80;88.20;;;;;;5094972;28;20134;-64
2022/03/19 11:06:09;;;;;;;6.45;2.20;;;11.80;87.50;;;;;;5113349;28;20049;-63
2022/03/19 11:08:38;;;;;;;7.47;2.45;;;11.70;86.90;;;;;;5112942;28;20048;-65
2022/03/19 11:11:10;;;;;;;6.80;2.30;;;11.70;86.80;;;;;;5113318;28;20047;-65
2022/03/19 11:13:42;;;;;;;7.80;2.83;;;11.80;88.90;;;;;;5113019;28;20051;-65
2022/03/19 11:16:10;;;;;;;8.98;2.50;;;11.90;89.40;;;;;;5095225;28;20466;-65
2022/03/19 11:18:37;;;;;;;6.53;2.33;;;12.00;89.10;;;;;;5094120;28;20149;-64
2022/03/19 11:21:03;;;;;;;6.57;2.67;;;12.00;87.10;;;;;;5112932;28;20405;-63
2022/03/19 11:23:40;;;;;;;8.40;2.25;;;12.00;86.80;;;;;;5112347;28;20040;-66
2022/03/19 11:26:10;;;;;;;7.72;2.50;;;12.20;87.50;;;;;;5112963;28;20059;-63
2022/03/19 11:28:36;;;;;;;4.65;2.08;;;12.20;86.60;;;;;;5112666;28;20176;-66
2022/03/19 11:31:13;;;;;;;6.20;2.30;;;12.10;84.20;;;;;;5094469;28;20051;-64
2022/03/19 11:33:39;;;;;;;6.00;2.20;;;12.20;85.10;;;;;;5112476;28;20453;-64
2022/03/19 11:36:10;;;;;;;5.72;2.20;;;12.10;83.90;;;;;;5094687;28;20083;-64
2022/03/19 11:38:57;;;;;;;8.25;2.13;;;12.10;84.60;;;;;;5112398;28;20043;-63
2022/03/19 11:41:25;;;;;;;14.82;2.67;;;12.20;85.10;;;;;;5112002;28;20047;-64
2022/03/19 11:44:20;;;;;;;7.85;2.60;;;12.20;85.80;;;;;;5111960;28;20043;-64
2022/03/19 11:46:59;;;;;;;3.95;1.70;;;12.30;85.20;;;;;;5111504;28;20040;-64
2022/03/19 11:50:02;;;;;;;3.22;1.60;;;12.30;84.10;;;;;;5093660;28;20104;-64
2022/03/19 11:52:30;;;;;;;4.07;1.60;;;12.20;82.50;;;;;;5111850;28;20188;-65
2022/03/19 11:55:03;;;;;;;4.43;1.40;;;12.20;84.40;;;;;;5111888;28;20130;-65
2022/03/19 11:57:47;;;;;;;4.93;1.67;;;12.20;83.40;;;;;;5110942;28;20515;-72
2022/03/19 12:00:24;;;;;;;7.35;2.13;;;12.20;82.60;;;;;;5112269;28;20530;-63
2022/03/19 12:03:16;;;;;;;4.60;1.77;;;12.20;82.40;;;;;;5111413;28;20051;-66
2022/03/19 12:05:49;;;;;;;3.75;1.60;;;12.10;83.10;;;;;;5111810;28;20059;-65
2022/03/19 12:08:21;;;;;;;4.63;1.60;;;12.10;82.10;;;;;;5093691;28;20058;-65
2022/03/19 12:11:13;;;;;;;6.80;1.55;;;12.10;83.50;;;;;;5094015;28;20385;-63
2022/03/19 12:13:42;;;;;;;4.35;1.75;;;12.20;82.80;;;;;;5111719;28;20135;-64
2022/03/19 12:16:08;;;;;;;4.15;1.88;;;12.20;83.50;;;;;;5112040;28;20047;-62
2022/03/19 12:18:41;;;;;;;3.47;1.60;;;12.20;84.40;;;;;;5111748;28;20455;-63
2022/03/19 12:21:10;;;;;;;6.35;1.60;;;12.30;83.90;;;;;;5111945;28;20245;-63
2022/03/19 12:23:40;;;;;;;4.03;1.40;;;12.30;82.10;;;;;;5112049;28;20054;-63
2022/03/19 12:26:08;;;;;;;5.88;1.83;;;12.30;81.70;;;;;;5111933;28;20043;-63
2022/03/19 12:28:35;;;;;;;5.97;1.88;;;12.30;82.60;;;;;;5111795;28;20039;-62
2022/03/19 12:31:06;;;;;;;4.95;1.60;;;12.30;82.40;;;;;;5112109;28;20401;-63
2022/03/19 12:33:32;;;;;;;4.53;1.70;;;12.30;82.80;;;;;;5111696;28;20051;-63
2022/03/19 12:36:20;;;;;;;5.72;1.80;;;12.40;83.40;;;;;;5093257;28;20059;-64
2022/03/19 12:38:50;;;;;;;5.15;1.98;;;12.40;83.30;;;;;;5111368;28;20143;-63
2022/03/19 12:41:26;;;;;;;3.63;1.45;;;12.40;84.20;;;;;;5111886;28;20075;-66
2022/03/19 12:43:52;;;;;;;3.05;1.48;;;12.50;83.30;;;;;;5111515;28;20043;-62
2022/03/19 12:46:30;;;;;;;3.40;1.20;;;12.50;84.60;;;;;;5111703;28;20059;-62
2022/03/19 12:49:14;;;;;;;3.83;1.30;;;12.60;78.70;;;;;;5111190;28;20110;-67
2022/03/19 12:51:45;;;;;;;5.28;1.67;;;12.50;79.60;;;;;;5111531;28;20097;-64
2022/03/19 12:54:30;;;;;;;5.28;1.95;;;12.50;79.60;;;;;;5093187;28;20430;-64
2022/03/19 12:57:11;;;;;;;4.82;1.30;;;12.40;77.60;;;;;;5111237;28;20047;-68
2022/03/19 12:59:46;;;;;;;3.95;1.55;;;12.40;77.00;;;;;;5111362;28;20053;-68
2022/03/19 13:02:12;;;;;;;4.15;1.70;;;12.30;77.00;;;;;;5111639;28;20063;-63
2022/03/19 13:04:42;;;;;;;4.57;1.67;;;12.30;77.20;;;;;;5111128;28;20049;-67